Accueil
METAR-TAF:

METAR-TAF

Aéroports :

Cordova, Alaska, États-Unis

latitude: 60-29-30N, longitude: 145-28-40W, altitude: 13 m

Observation

Le bulletin a été fait il y a 56 minutes, à 00:53 UTC
Vent calme
Température 2°C
Humidité 93%
Pression 1005 hPa
Visibilité: 16.1 km
Ciel couvert à une hauteur de 9500 ft

METAR: PACV 120053Z 00000KT 10SM OVC095 02/01 A2967 RMK AO2 SLP046 T00170006

Heure: 16:49 (01:49 UTC)

Prévision

Le bulletin a été fait il y a 2 heures et 11 minutes, à 23:38 UTC
Prévision valable du 12 à 00 UTC au 12 à 24 UTC
Vent 3 kt de direction variable
Visibilité: 10 km
Quelques nuages à une hauteur de 5000 ft
Nuages fragmentés à une hauteur de 15000 ft

TAF: PACV 112338Z 1200/1224 VRB03KT P6SM FEW050 BKN150

Observations et prévisions météorologiques de plus de 4000 aéroports (messages METAR et TAF).

Les stations disponibles sont représentées par des disques jaunes et rouges sur la carte.

Passer la souris dessus pour voir le nom de la station.

Cliquer dessus pour voir les observations et prévisions météorologiques.

Pour changer de carte: cliquez sur les boutons verts avec une croix noire pour zoomer, sur le bouton vert avec un tiret pour effectuer un zoom arrière, ou sur les flèches vertes pour les cartes adjacentes.


METAR-TAF: